createdAt,value
2018-10-01T00:03:50.441Z,4.90
2018-10-01T00:09:54.023Z,4.53
2018-10-01T00:15:57.420Z,4.57
2018-10-01T00:22:06.353Z,4.90
2018-10-01T00:28:10.416Z,5.30
2018-10-01T00:34:14.060Z,4.67
2018-10-01T00:40:17.502Z,5.23
2018-10-01T00:46:20.900Z,5.20
2018-10-01T00:52:24.283Z,5.70
2018-10-01T00:58:28.383Z,6.03
2018-10-01T01:04:31.767Z,5.77
2018-10-01T01:10:35.851Z,5.83
2018-10-01T01:16:39.797Z,6.27
2018-10-01T01:22:43.220Z,6.00
2018-10-01T01:28:46.639Z,5.53
2018-10-01T01:34:50.616Z,6.27
2018-10-01T01:40:53.967Z,6.97
2018-10-01T01:46:57.452Z,7.07
2018-10-01T01:53:04.572Z,7.03
2018-10-01T01:59:08.006Z,7.73
2018-10-01T02:05:12.036Z,8.10
2018-10-01T02:11:15.537Z,9.30
2018-10-01T02:17:18.927Z,8.70
2018-10-01T02:23:22.321Z,8.43
2018-10-01T02:29:25.972Z,7.73
2018-10-01T02:35:29.344Z,7.20
2018-10-01T02:41:32.728Z,6.50
2018-10-01T02:47:36.337Z,5.97
2018-10-01T02:53:45.232Z,6.10
2018-10-01T02:59:49.184Z,5.53
2018-10-01T03:05:52.557Z,6.33
2018-10-01T03:11:55.992Z,6.37
2018-10-01T03:17:59.430Z,6.30
2018-10-01T03:24:02.859Z,5.60
2018-10-01T03:30:07.952Z,6.00
2018-10-01T03:36:11.476Z,5.97
2018-10-01T03:42:14.967Z,7.60
2018-10-01T03:48:18.350Z,6.83
2018-10-01T03:54:21.974Z,6.77
2018-10-01T04:00:25.412Z,6.17
2018-10-01T04:06:29.496Z,5.53
2018-10-01T04:12:32.936Z,4.50
2018-10-01T04:18:36.319Z,4.40
2018-10-01T04:24:39.873Z,7.60
2018-10-01T04:30:47.958Z,7.60
2018-10-01T04:36:55.943Z,7.43
2018-10-01T04:43:05.472Z,3.30
2018-10-01T04:49:10.992Z,3.23
2018-10-01T04:55:14.634Z,2.83
2018-10-01T05:01:19.700Z,2.70
2018-10-01T05:07:27.757Z,2.90
2018-10-01T05:13:32.548Z,3.07
2018-10-01T05:19:38.305Z,3.27
2018-10-01T05:25:43.519Z,2.50
2018-10-01T05:31:50.248Z,3.13
2018-10-01T05:37:56.069Z,3.17
2018-10-01T05:50:35.543Z,3.30
2018-10-01T05:56:40.088Z,3.17
2018-10-01T06:02:49.992Z,3.63
2018-10-01T06:08:53.449Z,3.30
2018-10-01T06:14:56.974Z,3.33
2018-10-01T06:21:00.343Z,3.20
2018-10-01T06:27:03.947Z,2.70
2018-10-01T06:33:08.621Z,3.97
2018-10-01T06:39:12.034Z,3.17
2018-10-01T06:45:15.483Z,3.00
2018-10-01T06:51:18.922Z,1.87
2018-10-01T06:57:26.041Z,2.17
2018-10-01T07:03:29.567Z,2.10
2018-10-01T07:09:33.011Z,1.93
2018-10-01T07:15:37.163Z,2.27
2018-10-01T07:21:40.538Z,2.07
2018-10-01T07:27:43.898Z,1.80
2018-10-01T07:33:47.419Z,2.20
2018-10-01T07:39:50.946Z,2.07
2018-10-01T07:45:54.434Z,1.90
2018-10-01T07:51:57.901Z,1.70
2018-10-01T07:58:01.284Z,1.60
2018-10-01T08:04:04.668Z,1.87
2018-10-01T08:10:08.291Z,1.40
2018-10-01T08:16:11.685Z,1.40
2018-10-01T08:22:15.240Z,1.83
2018-10-01T08:28:18.595Z,1.57
2018-10-01T08:34:22.605Z,1.40
2018-10-01T08:40:26.319Z,1.70
2018-10-01T08:46:36.633Z,1.60
2018-10-01T08:52:47.581Z,1.67
2018-10-01T08:58:51.612Z,2.07
2018-10-01T09:04:54.989Z,1.30
2018-10-01T09:10:58.549Z,1.00
2018-10-01T09:17:02.215Z,1.30
2018-10-01T09:23:05.712Z,1.40
2018-10-01T09:29:09.195Z,1.50
2018-10-01T09:35:12.610Z,1.67
2018-10-01T09:41:16.667Z,1.70
2018-10-01T09:47:20.264Z,2.20
2018-10-01T09:53:23.672Z,1.77
2018-10-01T09:59:27.679Z,2.00
2018-10-01T10:05:31.189Z,1.87
2018-10-01T10:11:34.751Z,2.50
2018-10-01T10:17:38.586Z,2.73
2018-10-01T10:23:41.939Z,1.57
2018-10-01T10:29:45.366Z,1.53
2018-10-01T10:35:49.329Z,1.73
2018-10-01T10:41:52.774Z,1.70
2018-10-01T10:47:56.171Z,1.67
2018-10-01T10:53:59.699Z,0.70
2018-10-01T11:00:03.343Z,0.70
2018-10-01T11:06:06.722Z,1.20
2018-10-01T11:12:10.198Z,1.30
2018-10-01T11:18:13.677Z,1.63
2018-10-01T11:24:18.365Z,1.07
2018-10-01T11:30:22.024Z,0.67
2018-10-01T11:36:25.499Z,0.90
2018-10-01T11:42:29.077Z,0.97
2018-10-01T11:48:33.127Z,2.07
2018-10-01T11:54:36.777Z,1.80
2018-10-01T12:00:40.369Z,2.10
2018-10-01T12:06:45.210Z,1.60
2018-10-01T12:12:49.387Z,1.50
2018-10-01T12:18:52.911Z,1.23
2018-10-01T12:24:56.291Z,1.30
2018-10-01T12:31:00.134Z,1.03
2018-10-01T12:37:03.616Z,1.00
2018-10-01T12:43:07.273Z,1.43
2018-10-01T12:49:10.853Z,1.70
2018-10-01T12:55:15.057Z,1.90
2018-10-01T13:01:18.521Z,2.60
2018-10-01T13:07:21.975Z,2.90
2018-10-01T13:13:25.389Z,2.97
2018-10-01T13:19:28.919Z,3.10
2018-10-01T13:25:33.220Z,2.60
2018-10-01T13:31:36.648Z,1.60
2018-10-01T13:37:41.165Z,1.20
2018-10-01T13:43:45.872Z,1.77
2018-10-01T13:49:50.868Z,1.90
2018-10-01T13:55:54.952Z,2.10
2018-10-01T14:01:58.676Z,3.37
2018-10-01T14:08:02.942Z,2.10
2018-10-01T14:14:06.797Z,3.00
2018-10-01T14:20:10.569Z,3.53
2018-10-01T14:26:13.954Z,3.00
2018-10-01T14:32:17.574Z,1.80
2018-10-01T14:38:20.982Z,1.73
2018-10-01T14:44:25.211Z,2.03
2018-10-01T14:50:30.050Z,1.87
2018-10-01T14:56:42.282Z,1.40
2018-10-01T15:02:46.995Z,2.10
2018-10-01T15:08:51.412Z,2.00
2018-10-01T15:14:54.800Z,1.70
2018-10-01T15:20:59.838Z,2.03
2018-10-01T15:27:03.786Z,1.50
2018-10-01T15:33:08.168Z,1.30
2018-10-01T15:39:11.647Z,0.87
2018-10-01T15:45:15.149Z,1.13
2018-10-01T15:51:19.123Z,1.00
2018-10-01T15:57:22.985Z,1.30
2018-10-01T16:03:26.406Z,1.23
2018-10-01T16:09:29.884Z,1.40
2018-10-01T16:15:33.381Z,1.27
2018-10-01T16:21:36.856Z,0.93
2018-10-01T16:27:40.298Z,1.37
2018-10-01T16:33:43.733Z,2.67
2018-10-01T16:39:47.145Z,2.60
2018-10-01T16:45:50.680Z,2.03
2018-10-01T16:51:54.467Z,2.20
2018-10-01T16:57:57.883Z,2.60
2018-10-01T17:04:01.348Z,2.40
2018-10-01T17:10:05.134Z,2.30
2018-10-01T17:16:08.618Z,1.83
2018-10-01T17:22:11.995Z,2.17
2018-10-01T17:28:15.612Z,1.50
2018-10-01T17:34:19.447Z,1.47
2018-10-01T17:40:22.881Z,1.67
2018-10-01T17:46:27.244Z,2.13
2018-10-01T17:52:31.055Z,1.60
2018-10-01T17:58:34.556Z,1.50
2018-10-01T18:04:38.012Z,1.80
2018-10-01T18:10:42.388Z,1.80
2018-10-01T18:16:45.904Z,1.70
2018-10-01T18:22:55.393Z,1.67
2018-10-01T18:28:58.934Z,2.10
2018-10-01T18:35:02.716Z,2.40
2018-10-01T18:41:07.149Z,2.30
2018-10-01T18:47:10.615Z,3.03
2018-10-01T18:53:14.210Z,3.10
2018-10-01T18:59:17.679Z,2.70
2018-10-01T19:05:21.188Z,2.50
2018-10-01T19:11:24.620Z,2.83
2018-10-01T19:17:28.971Z,2.93
2018-10-01T19:23:33.418Z,1.93
2018-10-01T19:29:38.831Z,2.93
2018-10-01T19:35:42.631Z,3.03
2018-10-01T19:41:46.016Z,2.63
2018-10-01T19:47:49.456Z,2.70
2018-10-01T19:53:53.032Z,2.27
2018-10-01T19:59:56.413Z,1.90
2018-10-01T20:06:03.151Z,2.20
2018-10-01T20:12:07.463Z,1.80
2018-10-01T20:18:11.001Z,1.93
2018-10-01T20:24:14.820Z,1.93
2018-10-01T20:30:18.324Z,1.93
2018-10-01T20:36:22.768Z,2.47
2018-10-01T20:42:26.227Z,2.10
2018-10-01T20:48:29.664Z,2.40
2018-10-01T20:54:33.243Z,2.40
2018-10-01T21:00:36.778Z,2.07
2018-10-01T21:06:40.406Z,2.53
2018-10-01T21:12:44.141Z,2.03
2018-10-01T21:18:47.723Z,2.63
2018-10-01T21:24:51.307Z,3.00
2018-10-01T21:30:54.765Z,2.77
2018-10-01T21:36:58.247Z,3.37
2018-10-01T21:43:02.427Z,2.90
2018-10-01T21:49:05.995Z,2.80
2018-10-01T21:55:10.300Z,2.80
2018-10-01T22:01:19.364Z,2.80
2018-10-01T22:07:23.557Z,3.50
2018-10-01T22:13:27.736Z,2.63
2018-10-01T22:19:31.196Z,2.43
2018-10-01T22:25:34.748Z,3.37
2018-10-01T22:31:38.188Z,2.57
2018-10-01T22:37:41.570Z,3.27
2018-10-01T22:43:45.039Z,2.80
2018-10-01T22:49:48.626Z,3.53
2018-10-01T22:55:52.443Z,3.43
2018-10-01T23:01:55.913Z,3.40
2018-10-01T23:07:59.314Z,3.47
2018-10-01T23:14:02.820Z,3.13
2018-10-01T23:20:06.259Z,3.40
2018-10-01T23:26:09.641Z,2.57
2018-10-01T23:32:13.004Z,2.70
2018-10-01T23:38:16.481Z,2.77
2018-10-01T23:44:19.968Z,3.37
2018-10-01T23:50:23.359Z,2.60
2018-10-01T23:56:26.955Z,2.30
